Jamestown, Idaho
Current Conditions -  °F | °C
As of 8:53 PM on Tuesday 21 Oct 2014 (Local Time) from KIDA Reporting Station
Overcast Overcast  
Wind Chill: 42°   Ceiling: 6000
Heat Index: 48°   Visibility: 10mi
Dew Point: 35°   Wind: 15mph
Humidity: 61%   Direction: 190°S
Pressure: 30.08"   Gusts: NA
Location:  43.2015°N, 111.522°W
Report Text: KIDA 220253Z AUTO 19013KT 10SM BKN060 OVC075 09/02 A3008 RMK AO2 SLP176 T00890017 51015
Loading
Personal Weather Stations






























Interactive Weather Map
Tropical Storm Tracking
New forecast layout! Learn more

10-Day Weather Forecast

Advertisements
Track Severe Weather on mobile